Time;durP1;ratioP1;P1;durP2;ratioP2;P2;SDS_P1;SDS_P2;PMS_P1;PMS_P2;Temp;Humidity;BMP_temperature;BMP_pressure;BME280_temperature;BME280_humidity;BME280_pressure;Samples;Min_cycle;Max_cycle;Signal;HPM_P1;HPM_P2
2021/11/15 00:02:10;;;;;;;45.10;24.58;;;;;;;5.91;100.00;102363.19;4954645;28;20583;-82
2021/11/15 00:04:36;;;;;;;45.03;23.73;;;;;;;5.95;100.00;102354.41;4968598;28;20049;-79
2021/11/15 00:07:02;;;;;;;45.47;23.65;;;;;;;5.95;100.00;102359.56;4985321;28;20084;-81
2021/11/15 00:09:28;;;;;;;48.33;23.85;;;;;;;5.96;100.00;102358.63;4947271;28;20031;-80
2021/11/15 00:11:53;;;;;;;46.65;23.95;;;;;;;5.98;100.00;102346.50;4980280;28;20045;-80
2021/11/15 00:14:19;;;;;;;44.00;23.45;;;;;;;5.99;100.00;102358.47;4987410;28;20503;-80
2021/11/15 00:16:45;;;;;;;45.65;24.88;;;;;;;6.00;100.00;102349.81;4968861;28;20038;-80
2021/11/15 00:19:11;;;;;;;45.97;24.80;;;;;;;6.02;100.00;102347.97;4974495;28;20049;-80
2021/11/15 00:21:36;;;;;;;48.75;24.48;;;;;;;6.03;100.00;102352.22;4968878;28;20038;-79
2021/11/15 00:24:03;;;;;;;48.55;23.73;;;;;;;6.10;100.00;102352.69;4969363;28;20356;-80
2021/11/15 00:26:31;;;;;;;41.67;23.52;;;;;;;6.24;99.17;102351.91;4985976;28;20022;-82
2021/11/15 00:28:58;;;;;;;42.85;23.83;;;;;;;6.22;98.81;102358.88;4982746;28;20396;-80
2021/11/15 00:31:24;;;;;;;45.30;23.35;;;;;;;6.31;98.41;102354.94;4967070;28;20108;-80
2021/11/15 00:33:51;;;;;;;45.60;22.38;;;;;;;6.33;98.33;102353.09;4968734;28;20045;-80
2021/11/15 00:36:17;;;;;;;47.53;22.45;;;;;;;6.39;97.40;102348.41;4954106;28;20038;-79
2021/11/15 00:38:42;;;;;;;38.92;21.45;;;;;;;6.39;97.36;102351.00;4975468;28;20038;-82
2021/11/15 00:41:08;;;;;;;40.55;21.17;;;;;;;6.36;97.59;102352.91;4968477;28;20129;-80
2021/11/15 00:43:33;;;;;;;45.42;21.60;;;;;;;6.41;97.37;102356.88;4965372;28;20045;-81
2021/11/15 00:45:59;;;;;;;38.97;20.58;;;;;;;6.40;97.38;102354.38;4967342;28;20042;-80
2021/11/15 00:48:25;;;;;;;39.50;20.10;;;;;;;6.39;97.15;102357.91;4966478;28;20027;-80
2021/11/15 00:50:51;;;;;;;45.20;22.25;;;;;;;6.41;97.23;102359.44;4971338;28;20096;-80
2021/11/15 00:53:16;;;;;;;39.17;20.67;;;;;;;6.45;97.65;102357.53;4970407;28;20041;-80
2021/11/15 00:55:43;;;;;;;41.42;20.35;;;;;;;6.44;96.96;102358.44;4972752;28;20487;-80
2021/11/15 00:58:09;;;;;;;37.42;20.73;;;;;;;6.41;97.19;102349.16;4969314;28;20088;-81
2021/11/15 01:00:37;;;;;;;37.03;20.42;;;;;;;6.46;96.96;102353.19;4968910;28;20081;-82
2021/11/15 01:03:08;;;;;;;42.50;21.45;;;;;;;6.46;96.75;102343.75;4984960;28;20491;-83
2021/11/15 01:05:35;;;;;;;34.88;19.50;;;;;;;6.42;97.02;102339.66;4969274;28;20522;-82
2021/11/15 01:08:01;;;;;;;44.72;20.48;;;;;;;6.40;96.84;102339.78;4969837;28;20038;-81
2021/11/15 01:10:26;;;;;;;40.75;19.98;;;;;;;6.43;97.25;102341.34;4967848;28;20442;-81
2021/11/15 01:12:52;;;;;;;38.42;20.58;;;;;;;6.46;97.29;102340.31;4960917;28;20316;-82
2021/11/15 01:15:22;;;;;;;40.10;20.33;;;;;;;6.46;96.92;102341.16;4972056;28;20306;-81
2021/11/15 01:17:49;;;;;;;36.10;19.77;;;;;;;6.47;96.68;102340.22;4988712;28;20035;-82
2021/11/15 01:20:19;;;;;;;43.42;21.85;;;;;;;6.50;96.88;102345.19;4988840;28;20042;-83
2021/11/15 01:22:45;;;;;;;35.90;19.35;;;;;;;6.50;96.48;102341.78;4985566;28;20041;-82
2021/11/15 01:25:12;;;;;;;37.42;19.67;;;;;;;6.45;96.73;102336.91;4956604;28;20034;-83
2021/11/15 01:27:38;;;;;;;37.33;19.48;;;;;;;6.45;96.84;102344.63;4971416;28;20292;-81
2021/11/15 01:30:06;;;;;;;40.75;19.90;;;;;;;6.41;96.79;102338.03;4975490;28;20032;-80
2021/11/15 01:32:32;;;;;;;40.20;20.40;;;;;;;6.42;96.92;102335.34;4978298;28;20351;-83
2021/11/15 01:34:57;;;;;;;38.10;20.45;;;;;;;6.43;97.16;102334.41;4990851;28;20133;-81
2021/11/15 01:37:23;;;;;;;36.83;20.52;;;;;;;6.42;96.98;102335.34;4989087;28;20053;-82
2021/11/15 01:39:48;;;;;;;37.63;20.42;;;;;;;6.42;97.08;102330.19;4970112;28;20038;-79
2021/11/15 01:42:14;;;;;;;38.20;20.50;;;;;;;6.52;96.10;102334.81;4992622;28;20038;-82
2021/11/15 01:44:40;;;;;;;37.42;20.48;;;;;;;6.57;95.96;102328.47;4972935;28;20109;-80
2021/11/15 01:47:06;;;;;;;36.90;20.08;;;;;;;6.56;95.05;102325.97;4977505;28;20466;-80
2021/11/15 01:49:32;;;;;;;37.00;18.65;;;;;;;6.54;95.74;102323.47;4978755;28;20088;-80
2021/11/15 01:51:58;;;;;;;41.13;20.80;;;;;;;6.52;95.56;102329.66;4955792;28;20030;-81
2021/11/15 01:54:24;;;;;;;32.08;18.17;;;;;;;6.47;95.61;102334.25;4975474;28;20034;-83
2021/11/15 01:56:51;;;;;;;38.15;19.10;;;;;;;6.56;95.73;102334.53;4972178;28;20043;-81
2021/11/15 01:59:17;;;;;;;38.60;20.13;;;;;;;6.51;95.27;102328.81;4973850;28;20245;-80
2021/11/15 02:01:43;;;;;;;35.85;19.02;;;;;;;6.65;94.47;102330.56;4972152;28;20145;-81
2021/11/15 02:04:08;;;;;;;41.70;18.73;;;;;;;6.56;94.03;102328.53;4990209;28;20121;-83
2021/11/15 02:06:35;;;;;;;40.47;20.08;;;;;;;6.59;94.11;102330.91;4972842;28;20034;-79
2021/11/15 02:09:00;;;;;;;39.58;19.63;;;;;;;6.57;93.86;102333.63;4992620;28;20395;-82
2021/11/15 02:11:26;;;;;;;36.33;19.20;;;;;;;6.58;93.65;102330.09;4980000;28;20045;-81
2021/11/15 02:13:51;;;;;;;38.78;19.45;;;;;;;6.76;92.80;102312.69;4977568;28;20297;-83
2021/11/15 02:16:17;;;;;;;39.85;18.73;;;;;;;6.61;93.27;102324.78;4971776;28;20046;-78
2021/11/15 02:18:42;;;;;;;40.92;20.90;;;;;;;6.66;92.85;102321.06;4972558;28;20534;-84
2021/11/15 02:21:09;;;;;;;40.45;20.60;;;;;;;6.66;92.55;102321.91;4972198;28;20045;-77
2021/11/15 02:23:38;;;;;;;43.40;21.45;;;;;;;6.66;92.54;102321.91;4992737;28;20041;-83
2021/11/15 02:26:05;;;;;;;37.75;21.40;;;;;;;6.68;92.11;102325.22;4966530;28;20033;-82
2021/11/15 02:28:37;;;;;;;41.05;20.55;;;;;;;6.61;92.93;102323.91;4974152;28;20030;-83
2021/11/15 02:31:04;;;;;;;37.50;20.75;;;;;;;6.57;93.27;102323.31;4972936;28;20030;-82
2021/11/15 02:33:31;;;;;;;35.47;20.08;;;;;;;6.54;93.58;102322.66;4959706;28;20050;-82
2021/11/15 02:35:58;;;;;;;35.55;20.63;;;;;;;6.59;93.67;102323.19;4974245;28;20426;-83
2021/11/15 02:38:24;;;;;;;38.78;21.58;;;;;;;6.54;93.83;102320.09;4987079;28;20093;-83
2021/11/15 02:40:49;;;;;;;38.47;20.75;;;;;;;6.51;94.05;102318.50;4977321;28;20061;-83
2021/11/15 02:43:15;;;;;;;36.72;20.05;;;;;;;6.49;94.37;102322.91;4974846;28;20490;-82
2021/11/15 02:45:41;;;;;;;40.95;21.30;;;;;;;6.49;94.46;102325.50;4974570;28;20030;-83
2021/11/15 02:48:07;;;;;;;42.67;19.02;;;;;;;6.51;94.63;102328.81;4963567;28;20271;-81
2021/11/15 02:50:33;;;;;;;36.10;19.25;;;;;;;6.59;94.25;102318.88;4957158;28;20037;-81
2021/11/15 02:53:04;;;;;;;34.85;18.85;;;;;;;6.54;93.76;102318.31;4977971;28;20053;-82
2021/11/15 02:55:31;;;;;;;35.67;18.67;;;;;;;6.53;94.09;102318.41;4970328;28;20030;-83
2021/11/15 02:57:58;;;;;;;34.65;19.60;;;;;;;6.53;94.29;102315.84;4951903;28;20034;-82
2021/11/15 03:00:37;;;;;;;36.80;19.13;;;;;;;6.52;94.14;102317.59;4971262;28;20034;-83
2021/11/15 03:03:03;;;;;;;36.00;19.73;;;;;;;6.50;94.55;102310.84;4983609;28;20041;-82
2021/11/15 03:05:32;;;;;;;37.22;19.42;;;;;;;6.60;93.47;102319.69;4975662;28;20038;-83
2021/11/15 03:07:59;;;;;;;33.75;18.70;;;;;;;6.63;93.38;102312.63;4976322;28;20121;-82
2021/11/15 03:10:26;;;;;;;35.45;18.88;;;;;;;6.61;93.59;102308.44;4971097;28;20089;-82
2021/11/15 03:12:52;;;;;;;38.10;19.65;;;;;;;6.54;93.95;102307.19;4971505;28;20045;-82
2021/11/15 03:15:39;;;;;;;37.13;19.17;;;;;;;6.53;94.33;102305.53;4956493;28;20030;-83
2021/11/15 03:18:08;;;;;;;34.55;19.27;;;;;;;6.52;94.33;102307.28;4976929;28;20441;-80
2021/11/15 03:20:46;;;;;;;32.92;18.48;;;;;;;6.66;92.75;102306.44;4977034;28;20555;-81
2021/11/15 03:23:18;;;;;;;34.97;18.55;;;;;;;6.56;93.33;102310.50;4959942;28;20068;-83
2021/11/15 03:25:44;;;;;;;33.70;19.10;;;;;;;6.57;93.11;102317.28;4952597;28;20088;-82
2021/11/15 03:28:13;;;;;;;36.67;19.02;;;;;;;6.49;93.39;102304.88;4971807;28;20026;-83
2021/11/15 03:30:39;;;;;;;32.55;16.85;;;;;;;6.46;93.63;102309.38;4985441;28;20434;-82
2021/11/15 03:33:06;;;;;;;39.38;19.95;;;;;;;6.49;93.10;102306.63;4973823;28;20623;-84
2021/11/15 03:35:31;;;;;;;35.53;18.58;;;;;;;6.58;92.66;102304.31;4956149;28;20037;-84
2021/11/15 03:37:57;;;;;;;33.78;17.67;;;;;;;6.57;91.83;102304.41;4991944;28;20042;-86
2021/11/15 03:40:25;;;;;;;34.63;18.55;;;;;;;6.64;91.42;102308.28;4971783;28;20037;-80
2021/11/15 03:42:53;;;;;;;33.17;17.35;;;;;;;6.63;91.37;102311.78;4971095;28;20178;-82
2021/11/15 03:45:19;;;;;;;36.10;19.23;;;;;;;6.65;91.79;102315.09;4973805;28;20065;-84
2021/11/15 03:47:45;;;;;;;33.88;17.95;;;;;;;6.68;91.40;102320.06;4988722;28;20030;-80
2021/11/15 03:50:11;;;;;;;33.90;18.88;;;;;;;6.64;90.88;102318.59;4971910;28;20435;-82
2021/11/15 03:52:39;;;;;;;39.42;20.08;;;;;;;6.62;91.26;102321.25;4972054;28;20058;-81
2021/11/15 03:55:07;;;;;;;35.28;18.98;;;;;;;6.61;91.33;102332.50;4970871;28;20418;-81
2021/11/15 03:57:33;;;;;;;38.65;20.10;;;;;;;6.70;90.82;102325.13;4973294;28;20157;-82
2021/11/15 03:59:58;;;;;;;38.17;20.08;;;;;;;6.61;90.90;102319.63;4966448;28;20033;-83
2021/11/15 04:02:28;;;;;;;37.10;18.70;;;;;;;6.59;91.48;102320.59;4975605;28;20073;-82
2021/11/15 04:05:01;;;;;;;38.45;20.88;;;;;;;6.55;91.36;102319.97;4972381;28;20129;-83
2021/11/15 04:07:34;;;;;;;37.20;18.38;;;;;;;6.55;91.45;102319.97;4973993;28;20034;-85
2021/11/15 04:10:18;;;;;;;34.28;18.35;;;;;;;6.55;91.82;102324.28;4974859;28;20032;-82
2021/11/15 04:12:45;;;;;;;36.88;18.50;;;;;;;6.62;91.30;102320.44;4963861;28;20034;-83
2021/11/15 04:15:12;;;;;;;33.85;17.70;;;;;;;6.52;91.31;102321.91;4970624;28;20214;-81
2021/11/15 04:17:40;;;;;;;36.05;18.30;;;;;;;6.48;91.87;102321.28;4970685;28;20097;-82
2021/11/15 04:20:08;;;;;;;41.50;20.35;;;;;;;6.51;92.29;102322.81;4978617;28;20038;-83
2021/11/15 04:22:35;;;;;;;33.70;17.48;;;;;;;6.52;92.21;102321.91;4978399;28;20042;-83
2021/11/15 04:25:06;;;;;;;36.65;20.13;;;;;;;6.56;91.80;102316.47;4953202;28;20057;-83
2021/11/15 04:27:32;;;;;;;37.13;18.20;;;;;;;6.59;91.54;102325.75;4973560;28;20076;-82
2021/11/15 04:29:57;;;;;;;35.72;19.35;;;;;;;6.51;91.61;102322.81;4966659;28;20470;-82
2021/11/15 04:32:23;;;;;;;40.28;19.13;;;;;;;6.53;91.38;102316.66;4958962;28;20037;-81
2021/11/15 04:34:48;;;;;;;36.22;19.13;;;;;;;6.52;91.79;102321.91;4973088;28;20034;-81
2021/11/15 04:37:14;;;;;;;34.22;18.48;;;;;;;6.42;92.00;102317.31;4987651;28;20117;-81
2021/11/15 04:39:39;;;;;;;39.83;20.05;;;;;;;6.42;91.94;102314.75;4976648;28;20034;-80
2021/11/15 04:42:05;;;;;;;34.47;17.83;;;;;;;6.43;91.76;102313.81;4986090;28;20410;-81
2021/11/15 04:44:30;;;;;;;36.60;20.15;;;;;;;6.47;92.29;102322.19;4973234;28;20063;-82
2021/11/15 04:46:56;;;;;;;39.65;19.77;;;;;;;6.43;92.15;102318.97;4972551;28;20027;-82
2021/11/15 04:49:21;;;;;;;40.00;20.25;;;;;;;6.49;91.64;102312.59;4970125;28;20023;-81
2021/11/15 04:51:47;;;;;;;42.03;20.17;;;;;;;6.46;91.65;102315.38;4974614;28;20547;-82
2021/11/15 04:54:14;;;;;;;35.35;19.17;;;;;;;6.45;91.92;102308.56;4974429;28;20030;-82
2021/11/15 04:56:41;;;;;;;38.45;19.67;;;;;;;6.48;91.38;102312.69;4969902;28;20264;-81
2021/11/15 04:59:07;;;;;;;36.25;19.75;;;;;;;6.49;90.90;102311.78;4986114;28;20063;-82
2021/11/15 05:01:32;;;;;;;38.95;20.23;;;;;;;6.48;91.32;102312.69;4961081;28;20041;-83
2021/11/15 05:03:58;;;;;;;39.78;20.75;;;;;;;6.43;91.71;102311.22;4986761;28;20447;-82
2021/11/15 05:06:23;;;;;;;40.20;19.77;;;;;;;6.40;92.47;102310.56;4969532;28;20198;-82
2021/11/15 05:08:49;;;;;;;39.92;19.27;;;;;;;6.53;92.29;102315.84;4972737;28;20022;-82
2021/11/15 05:11:14;;;;;;;33.30;18.05;;;;;;;6.42;91.99;102309.59;4987885;28;20475;-83
2021/11/15 05:13:40;;;;;;;38.88;19.58;;;;;;;6.40;92.44;102314.00;4966665;28;20104;-83
2021/11/15 05:16:06;;;;;;;37.55;19.40;;;;;;;6.36;92.90;102309.94;4954226;28;20546;-81
2021/11/15 05:18:31;;;;;;;38.20;18.73;;;;;;;6.38;92.92;102296.97;4987043;28;20062;-82
2021/11/15 05:20:57;;;;;;;39.20;19.80;;;;;;;6.39;92.59;102302.03;4971903;28;20034;-82
2021/11/15 05:23:22;;;;;;;50.13;20.75;;;;;;;6.36;92.50;102303.97;4969316;28;20034;-82
2021/11/15 05:25:48;;;;;;;39.80;20.08;;;;;;;6.33;92.50;102310.13;4966264;28;20117;-82
2021/11/15 05:28:14;;;;;;;41.72;21.67;;;;;;;6.35;92.79;102303.13;4989962;28;20027;-80
2021/11/15 05:30:39;;;;;;;42.08;19.63;;;;;;;6.46;91.84;102299.06;4987676;28;20487;-81
2021/11/15 05:33:05;;;;;;;39.88;20.60;;;;;;;6.39;91.81;102303.78;4985792;28;20340;-83
2021/11/15 05:35:30;;;;;;;36.97;20.42;;;;;;;6.43;91.85;102300.91;4968236;28;20038;-81
2021/11/15 05:37:56;;;;;;;40.67;20.33;;;;;;;6.38;92.09;102295.22;4987715;28;20026;-84
2021/11/15 05:40:23;;;;;;;41.80;20.30;;;;;;;6.38;92.83;102302.13;4989215;28;20042;-84
2021/11/15 05:42:49;;;;;;;41.22;20.83;;;;;;;6.43;92.07;102300.09;4985759;28;20146;-83
2021/11/15 05:45:16;;;;;;;45.85;21.05;;;;;;;6.40;92.32;102306.28;4969337;28;20049;-82
2021/11/15 05:47:42;;;;;;;41.83;21.17;;;;;;;6.41;92.45;102307.91;4969532;28;20514;-83
2021/11/15 05:50:09;;;;;;;45.30;22.35;;;;;;;6.48;92.09;102310.13;4954292;28;20049;-77
2021/11/15 05:52:40;;;;;;;46.22;20.80;;;;;;;6.39;91.80;102309.75;4953206;28;20061;-84
2021/11/15 05:55:06;;;;;;;39.67;20.30;;;;;;;6.35;92.34;102303.13;4969264;28;20482;-82
2021/11/15 05:57:32;;;;;;;39.13;19.52;;;;;;;6.35;92.63;102304.91;4948760;28;20042;-82
2021/11/15 05:59:57;;;;;;;44.35;21.20;;;;;;;6.35;92.88;102310.06;4985499;28;20026;-83
2021/11/15 06:02:23;;;;;;;43.80;21.65;;;;;;;6.34;93.09;102304.03;4988138;28;20058;-82
2021/11/15 06:04:48;;;;;;;47.78;21.27;;;;;;;6.35;92.59;102303.13;4970810;28;20074;-83
2021/11/15 06:07:14;;;;;;;43.28;21.80;;;;;;;6.45;92.55;102310.31;4988495;28;20545;-82
2021/11/15 06:09:39;;;;;;;48.83;23.17;;;;;;;6.45;92.18;102308.56;4977174;28;20482;-83
2021/11/15 06:12:05;;;;;;;43.47;21.63;;;;;;;6.47;92.06;102313.63;4972336;28;20034;-83
2021/11/15 06:14:31;;;;;;;38.85;20.50;;;;;;;6.46;91.44;102319.69;4974041;28;20026;-84
2021/11/15 06:16:56;;;;;;;42.13;20.33;;;;;;;6.38;91.93;102315.00;4956817;28;20069;-81
2021/11/15 06:19:22;;;;;;;43.70;21.60;;;;;;;6.40;92.24;102311.44;4969511;28;20038;-82
2021/11/15 06:21:47;;;;;;;47.28;20.48;;;;;;;6.33;92.39;102309.28;4989732;28;20519;-84
2021/11/15 06:24:13;;;;;;;38.97;20.20;;;;;;;6.38;91.75;102313.25;4989595;28;20026;-83
2021/11/15 06:26:38;;;;;;;49.15;22.23;;;;;;;6.41;91.46;102317.41;4957809;28;20045;-81
2021/11/15 06:29:04;;;;;;;43.85;21.17;;;;;;;6.36;92.23;102315.09;4972620;28;20056;-81
2021/11/15 06:31:29;;;;;;;45.33;22.02;;;;;;;6.34;92.60;102318.69;4991798;28;20054;-81
2021/11/15 06:33:55;;;;;;;49.20;22.83;;;;;;;6.34;92.37;102316.09;4976566;28;20077;-82
2021/11/15 06:36:23;;;;;;;47.47;22.17;;;;;;;6.34;92.48;102322.09;4971193;28;20038;-80
2021/11/15 06:38:50;;;;;;;45.17;22.15;;;;;;;6.33;92.41;102320.44;4973342;28;20042;-82
2021/11/15 06:41:15;;;;;;;44.75;21.10;;;;;;;6.33;92.53;102323.00;4972142;28;20297;-82
2021/11/15 06:43:41;;;;;;;48.28;22.90;;;;;;;6.31;92.73;102317.13;4972217;28;20034;-81
2021/11/15 06:46:06;;;;;;;48.55;23.13;;;;;;;6.33;92.55;102322.16;4971890;28;20467;-82
2021/11/15 06:48:37;;;;;;;46.60;22.45;;;;;;;6.52;91.37;102325.31;4977478;28;20034;-83
2021/11/15 06:51:04;;;;;;;45.17;21.85;;;;;;;6.59;90.07;102325.75;4975802;28;20061;-82
2021/11/15 06:53:31;;;;;;;48.20;22.02;;;;;;;6.48;90.30;102323.84;4973686;28;20288;-82
2021/11/15 06:55:58;;;;;;;47.25;22.33;;;;;;;6.50;90.54;102322.00;4974601;28;20038;-82
2021/11/15 06:58:25;;;;;;;47.85;21.98;;;;;;;6.44;91.11;102322.34;4974253;28;20168;-82
2021/11/15 07:00:51;;;;;;;47.58;21.88;;;;;;;6.42;90.86;102316.47;4973371;28;20061;-82
2021/11/15 07:03:17;;;;;;;43.85;22.02;;;;;;;6.37;91.46;102319.34;4988832;28;20030;-83
2021/11/15 07:05:42;;;;;;;47.25;22.55;;;;;;;6.32;91.82;102321.34;4962246;28;20479;-83
2021/11/15 07:08:08;;;;;;;53.60;24.80;;;;;;;6.33;92.42;102330.75;4963105;28;20018;-83
2021/11/15 07:10:34;;;;;;;52.88;25.52;;;;;;;6.34;92.13;102327.22;4976018;28;20041;-82
2021/11/15 07:13:01;;;;;;;57.75;26.70;;;;;;;6.46;91.94;102333.44;4954837;28;20042;-84
2021/11/15 07:15:26;;;;;;;57.35;26.48;;;;;;;6.40;91.70;102321.75;4972003;28;20045;-83
2021/11/15 07:17:52;;;;;;;56.75;26.48;;;;;;;6.40;91.80;102324.31;4971273;28;20030;-83
2021/11/15 07:20:17;;;;;;;55.35;26.30;;;;;;;6.37;91.90;102331.41;4974462;28;20042;-83
2021/11/15 07:22:44;;;;;;;51.80;26.80;;;;;;;6.45;91.92;102331.75;4955009;28;20049;-82
2021/11/15 07:25:10;;;;;;;54.60;25.83;;;;;;;6.40;92.03;102339.78;4974409;28;20469;-84
2021/11/15 07:27:35;;;;;;;51.42;25.60;;;;;;;6.46;91.47;102340.31;4992514;28;20065;-83
2021/11/15 07:30:02;;;;;;;51.92;24.33;;;;;;;6.41;92.05;102349.16;4973755;28;20049;-81
2021/11/15 07:32:28;;;;;;;51.42;22.90;;;;;;;6.42;91.94;102347.38;4972329;28;20042;-81
2021/11/15 07:34:54;;;;;;;53.40;23.05;;;;;;;6.35;91.70;102353.84;4973341;28;20039;-83
2021/11/15 07:37:19;;;;;;;46.85;21.17;;;;;;;6.38;92.02;102358.81;4990887;28;20033;-83
2021/11/15 07:39:45;;;;;;;49.03;22.35;;;;;;;6.35;91.93;102359.81;4977557;28;20381;-82
2021/11/15 07:42:13;;;;;;;47.15;21.35;;;;;;;6.36;91.70;102350.34;4971948;28;20050;-81
2021/11/15 07:44:39;;;;;;;46.90;21.75;;;;;;;6.40;91.85;102344.94;4971596;28;20041;-81
2021/11/15 07:47:05;;;;;;;49.67;20.52;;;;;;;6.36;91.90;102343.44;4972869;28;20030;-82
2021/11/15 07:49:31;;;;;;;49.72;21.80;;;;;;;6.49;90.27;102345.28;4997566;28;20101;-83
2021/11/15 07:51:57;;;;;;;47.50;21.65;;;;;;;6.35;91.14;102344.38;4973321;28;20030;-80
2021/11/15 07:54:23;;;;;;;47.50;22.75;;;;;;;6.36;90.72;102337.47;4978748;28;20041;-82
2021/11/15 07:56:49;;;;;;;46.35;20.95;;;;;;;6.35;91.23;102357.25;4955609;28;20042;-82
2021/11/15 07:59:15;;;;;;;67.75;28.35;;;;;;;6.36;90.92;102353.72;4980109;28;20026;-81
2021/11/15 08:01:41;;;;;;;47.20;21.60;;;;;;;6.34;90.52;102358.16;4973403;28;20061;-82
2021/11/15 08:04:06;;;;;;;50.10;21.88;;;;;;;6.33;90.95;102355.66;4984851;28;20022;-81
2021/11/15 08:06:31;;;;;;;44.53;20.77;;;;;;;6.32;91.19;102354.84;4993579;28;20030;-82
2021/11/15 08:08:58;;;;;;;46.80;19.95;;;;;;;6.32;91.48;102364.31;4972960;28;20030;-82
2021/11/15 08:11:28;;;;;;;45.83;20.48;;;;;;;6.32;91.32;102361.75;4961976;28;20100;-83
2021/11/15 08:13:54;;;;;;;47.03;20.67;;;;;;;6.34;91.23;102367.63;4969971;28;20038;-81
2021/11/15 08:16:19;;;;;;;42.58;19.98;;;;;;;6.34;91.89;102365.88;4990884;28;20138;-81
2021/11/15 08:18:45;;;;;;;72.88;31.13;;;;;;;6.49;89.31;102355.59;4973758;28;20042;-82
2021/11/15 08:21:13;;;;;;;74.85;34.45;;;;;;;6.50;89.61;102352.09;4992282;28;20315;-79
2021/11/15 08:23:41;;;;;;;78.55;36.78;;;;;;;6.41;89.80;102354.31;4955194;28;20026;-79
2021/11/15 08:26:35;;;;;;;77.10;35.88;;;;;;;6.39;90.01;102352.75;4972174;28;20038;-82
2021/11/15 08:29:04;;;;;;;75.43;35.42;;;;;;;6.38;90.09;102353.66;4969008;28;20057;-83
2021/11/15 08:31:30;;;;;;;75.72;37.60;;;;;;;6.36;90.26;102355.50;4968482;28;20053;-80
2021/11/15 08:33:56;;;;;;;74.57;36.08;;;;;;;6.36;89.91;102366.63;4956657;28;20038;-83
2021/11/15 08:36:23;;;;;;;70.32;33.40;;;;;;;6.36;89.71;102364.03;4962994;28;20110;-82
2021/11/15 08:39:02;;;;;;;70.82;35.10;;;;;;;6.29;90.38;102369.66;4972277;28;20039;-83
2021/11/15 08:41:32;;;;;;;73.32;36.33;;;;;;;6.27;90.61;102356.84;4975768;28;20034;-82
2021/11/15 08:44:00;;;;;;;69.07;33.00;;;;;;;6.29;90.73;102359.34;4973348;28;20073;-83
2021/11/15 08:46:28;;;;;;;60.45;30.15;;;;;;;6.35;90.51;102353.84;4975527;28;20101;-79
2021/11/15 08:48:54;;;;;;;61.95;30.88;;;;;;;6.40;89.79;102350.09;4960404;28;20018;-82
2021/11/15 08:51:20;;;;;;;67.78;30.42;;;;;;;6.44;88.74;102353.28;4976822;28;20026;-82
2021/11/15 08:53:46;;;;;;;54.05;25.75;;;;;;;6.47;88.52;102355.69;4992965;28;20037;-82
2021/11/15 08:56:13;;;;;;;58.08;26.42;;;;;;;6.41;88.61;102348.31;4982016;28;20194;-82
2021/11/15 08:58:39;;;;;;;52.63;27.08;;;;;;;6.30;89.19;102359.25;4956298;28;20247;-81
2021/11/15 09:01:07;;;;;;;56.00;27.15;;;;;;;6.26;89.49;102365.50;4990124;28;20045;-81
2021/11/15 09:03:35;;;;;;;56.28;25.85;;;;;;;6.33;89.09;102364.25;4975966;28;20030;-82
2021/11/15 09:06:01;;;;;;;60.03;27.17;;;;;;;6.32;89.46;102365.16;4978824;28;20026;-79
2021/11/15 09:08:26;;;;;;;59.88;27.17;;;;;;;6.41;88.77;102369.75;4980287;28;20365;-81
2021/11/15 09:10:51;;;;;;;62.45;27.08;;;;;;;6.36;89.27;102369.19;4976244;28;20407;-82
2021/11/15 09:13:17;;;;;;;61.63;28.63;;;;;;;6.32;89.51;102372.88;4995527;28;20034;-81
2021/11/15 09:15:43;;;;;;;61.38;28.65;;;;;;;6.31;89.89;102368.66;4975949;28;20022;-80
2021/11/15 09:18:08;;;;;;;54.83;26.23;;;;;;;6.28;90.01;102360.28;4992182;28;20340;-82
2021/11/15 09:20:34;;;;;;;54.45;25.27;;;;;;;6.24;90.17;102363.03;4977416;28;20025;-80
2021/11/15 09:23:00;;;;;;;57.63;25.73;;;;;;;6.34;89.98;102370.22;4982838;28;20069;-81
2021/11/15 09:25:25;;;;;;;55.85;25.88;;;;;;;6.26;89.96;102359.53;4975188;28;20527;-81
2021/11/15 09:27:51;;;;;;;56.85;24.70;;;;;;;6.26;89.68;102355.22;4975889;28;20035;-80
2021/11/15 09:30:17;;;;;;;53.45;24.67;;;;;;;6.23;90.10;102358.81;4959719;28;20026;-82
2021/11/15 09:32:43;;;;;;;54.00;24.98;;;;;;;6.27;89.34;102356.84;4990997;28;20038;-79
2021/11/15 09:35:09;;;;;;;47.13;21.70;;;;;;;6.38;88.06;102353.66;4994935;28;20486;-83
2021/11/15 09:37:35;;;;;;;56.78;23.42;;;;;;;6.33;88.98;102376.28;4980790;28;20038;-82
2021/11/15 09:40:03;;;;;;;49.95;22.67;;;;;;;6.28;89.26;102373.16;4978811;28;20042;-82
2021/11/15 09:42:29;;;;;;;54.97;22.80;;;;;;;6.25;89.76;102374.16;4999066;28;20034;-79
2021/11/15 09:44:55;;;;;;;45.25;22.25;;;;;;;6.27;89.95;102371.47;4976142;28;20030;-82
2021/11/15 09:47:20;;;;;;;47.03;21.75;;;;;;;6.23;90.05;102382.00;4979460;28;20498;-78
2021/11/15 09:49:46;;;;;;;51.28;21.63;;;;;;;6.21;89.67;102377.81;4995682;28;20029;-79
2021/11/15 09:52:11;;;;;;;51.92;22.52;;;;;;;6.24;89.22;102377.66;4978332;28;20112;-78
2021/11/15 09:54:37;;;;;;;50.65;23.38;;;;;;;6.30;89.27;102364.41;4977400;28;20062;-82
2021/11/15 09:57:03;;;;;;;51.90;21.27;;;;;;;6.25;89.26;102363.84;4979145;28;20149;-82
2021/11/15 09:59:29;;;;;;;48.30;19.98;;;;;;;6.27;89.96;102361.19;4983612;28;20063;-82
2021/11/15 10:01:57;;;;;;;47.60;21.20;;;;;;;6.26;89.98;102364.69;4978428;28;20776;-80
2021/11/15 10:04:24;;;;;;;45.30;20.45;;;;;;;6.30;89.60;102368.75;4978810;28;20384;-81
2021/11/15 10:06:53;;;;;;;43.38;18.20;;;;;;;6.30;89.22;102369.56;4975834;28;21004;-83
2021/11/15 10:09:28;;;;;;;38.42;17.20;;;;;;;6.37;88.72;102363.13;4978135;28;20494;-81
2021/11/15 10:11:55;;;;;;;39.10;15.80;;;;;;;6.30;88.55;102364.41;4998992;28;20042;-82
2021/11/15 10:14:21;;;;;;;44.67;17.65;;;;;;;6.32;88.51;102365.16;4978139;28;20132;-80
2021/11/15 10:16:58;;;;;;;40.13;17.45;;;;;;;6.26;89.03;102368.09;4977434;28;20041;-80
2021/11/15 10:19:24;;;;;;;42.78;17.85;;;;;;;6.31;88.69;102371.22;4976858;28;20046;-84
2021/11/15 10:21:55;;;;;;;43.28;17.88;;;;;;;6.32;88.42;102372.06;4961314;28;20096;-82
2021/11/15 10:24:31;;;;;;;41.65;18.05;;;;;;;6.33;88.61;102369.41;4986985;28;20054;-81
2021/11/15 10:27:03;;;;;;;42.97;18.17;;;;;;;6.30;89.31;102372.13;4979182;28;20029;-78
2021/11/15 10:29:33;;;;;;;47.95;19.83;;;;;;;6.30;88.79;102359.25;4998778;28;20248;-83
2021/11/15 10:32:10;;;;;;;48.90;19.80;;;;;;;6.26;88.99;102357.78;4974312;28;20061;-83
2021/11/15 10:34:48;;;;;;;44.40;19.75;;;;;;;6.29;89.18;102357.63;4972879;28;20085;-84
2021/11/15 10:37:15;;;;;;;43.15;19.05;;;;;;;6.23;89.34;102355.38;4975996;28;20061;-83
2021/11/15 10:39:41;;;;;;;41.72;18.98;;;;;;;6.21;90.06;102359.78;4992521;28;20470;-80
2021/11/15 10:42:12;;;;;;;46.72;19.48;;;;;;;6.25;89.82;102338.06;4978756;28;20032;-80
2021/11/15 10:44:45;;;;;;;47.72;21.02;;;;;;;6.23;89.68;102337.34;4991435;28;20088;-82
2021/11/15 10:47:10;;;;;;;50.25;21.40;;;;;;;6.24;89.78;102342.41;4979071;28;20470;-82
2021/11/15 10:49:36;;;;;;;44.80;20.92;;;;;;;6.28;90.03;102332.75;4979359;28;20038;-80
2021/11/15 10:52:06;;;;;;;53.55;21.75;;;;;;;6.28;90.12;102329.34;4996624;28;20530;-79
2021/11/15 10:54:56;;;;;;;50.38;21.58;;;;;;;6.22;90.68;102335.69;4978451;28;20085;-82
2021/11/15 10:57:25;;;;;;;49.08;20.92;;;;;;;6.22;90.63;102331.38;4977453;28;20039;-81
2021/11/15 11:00:10;;;;;;;48.90;20.88;;;;;;;6.37;90.57;102321.09;4976982;28;20042;-80
2021/11/15 11:02:41;;;;;;;46.22;20.60;;;;;;;6.29;90.06;102316.41;4977388;28;20062;-80
2021/11/15 11:05:12;;;;;;;44.53;20.50;;;;;;;6.31;90.31;102321.44;4978896;28;20061;-80
2021/11/15 11:07:44;;;;;;;49.42;22.10;;;;;;;6.31;90.33;102316.28;4995547;28;20030;-82
2021/11/15 11:10:11;;;;;;;48.03;21.83;;;;;;;6.28;91.10;102306.19;4970133;28;20030;-81
2021/11/15 11:12:44;;;;;;;54.22;24.45;;;;;;;6.35;90.70;102310.06;4978546;28;20045;-82
2021/11/15 11:15:23;;;;;;;;;;;;;;;6.33;90.48;102314.44;4992704;28;20115;-82
2021/11/15 11:18:12;;;;;;;55.70;21.80;;;;;;;6.31;90.26;102305.97;4991168;28;19951;-82